Time;durP1;ratioP1;P1;durP2;ratioP2;P2;SDS_P1;SDS_P2;PMS_P1;PMS_P2;Temp;Humidity;BMP_temperature;BMP_pressure;BME280_temperature;BME280_humidity;BME280_pressure;Samples;Min_cycle;Max_cycle;Signal;HPM_P1;HPM_P2
2022/10/09 00:01:38;;;;;;;4.78;1.30;;;;;;;14.06;58.59;102043.16;5027575;28;99301;-65
2022/10/09 00:04:05;;;;;;;7.25;1.40;;;;;;;13.87;59.56;102056.13;5026476;28;99445;-65
2022/10/09 00:06:35;;;;;;;5.13;1.35;;;;;;;14.23;58.33;102056.84;5029694;27;98812;-66
2022/10/09 00:09:03;;;;;;;6.45;1.50;;;;;;;14.06;58.79;102060.91;5029748;28;97434;-65
2022/10/09 00:11:31;;;;;;;8.75;1.73;;;;;;;13.88;59.29;102063.19;5025131;27;99008;-65
2022/10/09 00:13:59;;;;;;;7.82;1.83;;;;;;;13.94;59.27;102062.13;5024830;27;99247;-66
2022/10/09 00:16:27;;;;;;;7.68;1.58;;;;;;;13.94;59.25;102062.13;5028663;28;97004;-66
2022/10/09 00:18:53;;;;;;;7.18;1.50;;;;;;;13.92;59.34;102072.78;5027145;27;99181;-65
2022/10/09 00:21:24;;;;;;;5.63;1.20;;;;;;;13.96;59.07;102069.16;5028518;27;100970;-65
2022/10/09 00:23:52;;;;;;;8.48;1.75;;;;;;;13.91;59.44;102072.88;5029425;27;98992;-66
2022/10/09 00:26:19;;;;;;;7.03;1.75;;;;;;;13.97;59.31;102072.69;5025578;27;97193;-65
2022/10/09 00:28:46;;;;;;;7.45;1.60;;;;;;;13.92;59.31;102072.78;5030068;28;97216;-65
2022/10/09 00:31:14;;;;;;;5.93;1.20;;;;;;;13.92;59.24;102074.56;5029267;27;99528;-66
2022/10/09 00:33:41;;;;;;;8.70;1.83;;;;;;;13.93;59.09;102081.63;5028137;28;97760;-68
2022/10/09 00:36:11;;;;;;;9.25;1.70;;;;;;;13.92;59.72;102090.53;5028745;27;97367;-65
2022/10/09 00:38:38;;;;;;;9.38;1.50;;;;;;;13.98;59.23;102084.19;5025249;27;98138;-66
2022/10/09 00:41:05;;;;;;;10.73;2.47;;;;;;;13.96;59.25;102090.41;5027257;27;99065;-65
2022/10/09 00:43:43;;;;;;;7.05;1.42;;;;;;;13.90;59.46;102093.25;5028750;27;98879;-65
2022/10/09 00:46:24;;;;;;;11.93;1.80;;;;;;;13.78;59.73;102098.91;5025645;27;96711;-65
2022/10/09 00:48:58;;;;;;;2.65;1.20;;;;;;;13.67;60.16;102097.44;5029765;27;96780;-65
2022/10/09 00:51:25;;;;;;;6.13;1.67;;;;;;;13.87;59.51;102103.94;5023186;28;97681;-65
2022/10/09 00:53:52;;;;;;;8.02;1.27;;;;;;;13.85;59.33;102105.75;5021407;27;99218;-66
2022/10/09 00:56:18;;;;;;;6.05;1.80;;;;;;;13.89;59.43;102106.56;5025132;27;97048;-66
2022/10/09 00:58:51;;;;;;;5.65;1.70;;;;;;;13.89;59.33;102107.44;5025538;28;97211;-66
2022/10/09 01:01:18;;;;;;;7.95;1.45;;;;;;;13.86;59.49;102110.16;5028246;28;99252;-65
2022/10/09 01:03:44;;;;;;;4.60;1.48;;;;;;;13.59;60.12;102112.72;5028033;28;99214;-64
2022/10/09 01:06:18;;;;;;;11.30;2.13;;;;;;;13.61;60.40;102110.88;5026856;28;96710;-65
2022/10/09 01:08:51;;;;;;;4.88;1.92;;;;;;;13.87;60.05;102119.00;5028293;28;96899;-66
2022/10/09 01:11:26;;;;;;;10.00;1.80;;;;;;;13.79;59.69;102111.25;5027345;27;99243;-66
2022/10/09 01:14:01;;;;;;;7.47;1.45;;;;;;;13.64;60.10;102117.00;5029782;27;98851;-66
2022/10/09 01:16:32;;;;;;;13.77;1.80;;;;;;;13.74;59.71;102115.81;5027706;28;97468;-65
2022/10/09 01:19:08;;;;;;;8.07;1.20;;;;;;;13.58;60.03;102117.16;5031102;27;96869;-65
2022/10/09 01:21:41;;;;;;;5.72;1.38;;;;;;;13.58;60.20;102119.81;5029868;27;98170;-65
2022/10/09 01:24:24;;;;;;;11.95;1.60;;;;;;;13.66;60.31;102127.56;5028639;28;98857;-64
2022/10/09 01:27:04;;;;;;;8.05;1.60;;;;;;;13.71;59.79;102125.69;5030920;28;96741;-65
2022/10/09 01:29:35;;;;;;;11.63;1.60;;;;;;;13.61;59.83;102121.50;5026115;28;96856;-66
2022/10/09 01:32:03;;;;;;;9.30;1.50;;;;;;;13.61;59.96;102133.00;5030169;28;97903;-66
2022/10/09 01:34:31;;;;;;;10.88;1.95;;;;;;;13.55;60.45;102125.19;5030089;28;99531;-66
2022/10/09 01:36:59;;;;;;;8.38;1.70;;;;;;;13.68;59.71;102126.63;5030523;28;96750;-66
2022/10/09 01:39:27;;;;;;;6.82;1.90;;;;;;;13.57;60.09;102128.69;5031063;28;97031;-64
2022/10/09 01:41:55;;;;;;;4.82;1.50;;;;;;;13.56;59.89;102129.59;5030414;28;98214;-66
2022/10/09 01:44:25;;;;;;;9.63;1.75;;;;;;;13.55;60.16;102141.13;5028719;28;98912;-67
2022/10/09 01:46:52;;;;;;;12.75;1.85;;;;;;;13.57;59.92;102136.66;5027697;27;96738;-65
2022/10/09 01:49:32;;;;;;;6.90;1.40;;;;;;;13.54;60.13;102144.69;5025771;27;96880;-66
2022/10/09 01:52:03;;;;;;;9.90;1.42;;;;;;;13.75;59.52;102152.09;5027362;27;98966;-65
2022/10/09 01:54:38;;;;;;;8.75;1.70;;;;;;;13.61;59.89;102148.06;5024564;27;98858;-65
2022/10/09 01:57:08;;;;;;;14.75;1.60;;;;;;;13.59;59.62;102142.78;5023056;27;96923;-65
2022/10/09 01:59:39;;;;;;;8.00;1.73;;;;;;;13.56;60.04;102146.41;5024931;27;99150;-66
2022/10/09 02:02:07;;;;;;;7.47;1.42;;;;;;;13.54;59.90;102152.66;5026215;27;98917;-66
2022/10/09 02:04:35;;;;;;;7.75;1.60;;;;;;;13.47;60.44;102149.28;5029049;27;99145;-65
2022/10/09 02:07:01;;;;;;;9.23;1.83;;;;;;;13.63;60.11;102156.88;5028450;27;97393;-67
2022/10/09 02:09:30;;;;;;;12.45;1.60;;;;;;;13.47;60.12;102146.63;5027477;27;98914;-66
2022/10/09 02:11:59;;;;;;;9.98;1.35;;;;;;;13.63;59.74;102151.56;5023639;27;99053;-65
2022/10/09 02:14:26;;;;;;;7.10;2.00;;;;;;;13.65;59.68;102155.06;5027032;27;99190;-66
2022/10/09 02:17:00;;;;;;;9.18;1.67;;;;;;;13.57;59.96;102153.47;5028452;27;97132;-65
2022/10/09 02:19:32;;;;;;;11.40;1.70;;;;;;;13.43;60.35;102152.94;5028333;27;97178;-65
2022/10/09 02:22:06;;;;;;;6.65;1.27;;;;;;;13.61;59.80;102161.34;5027517;28;99141;-66
2022/10/09 02:24:33;;;;;;;6.18;1.80;;;;;;;13.68;59.48;102165.59;5023146;28;98597;-66
2022/10/09 02:27:02;;;;;;;9.15;1.35;;;;;;;13.51;59.74;102158.06;5025233;28;96817;-65
2022/10/09 02:29:31;;;;;;;8.13;1.35;;;;;;;13.34;60.80;102163.78;5028937;27;96921;-65
2022/10/09 02:31:59;;;;;;;4.10;1.25;;;;;;;13.39;60.33;102164.53;5020724;27;99119;-65
2022/10/09 02:34:26;;;;;;;6.85;1.80;;;;;;;13.47;60.03;102167.00;5020293;27;98952;-65
2022/10/09 02:36:52;;;;;;;7.72;2.10;;;;;;;13.41;60.45;102168.03;5026143;28;96775;-65
2022/10/09 02:39:19;;;;;;;13.10;2.03;;;;;;;13.38;60.34;102168.13;5024735;28;96884;-65
2022/10/09 02:41:45;;;;;;;7.80;1.50;;;;;;;13.42;60.16;102176.88;5017156;28;99194;-66
2022/10/09 02:44:12;;;;;;;6.72;2.05;;;;;;;13.24;60.65;102172.00;5020099;28;98847;-65
2022/10/09 02:46:38;;;;;;;10.02;1.63;;;;;;;13.32;60.42;102170.06;5023688;28;96762;-65
2022/10/09 02:49:07;;;;;;;6.70;1.88;;;;;;;13.35;60.35;102168.19;5027485;27;97530;-65
2022/10/09 02:51:33;;;;;;;11.45;1.60;;;;;;;13.52;59.78;102165.13;5026753;28;99239;-65
2022/10/09 02:53:59;;;;;;;8.75;1.45;;;;;;;13.35;60.25;102167.31;5025969;28;98987;-65
2022/10/09 02:56:26;;;;;;;10.90;2.03;;;;;;;13.26;60.15;102178.16;5028266;28;97145;-65
2022/10/09 02:58:53;;;;;;;5.65;1.42;;;;;;;13.24;60.43;102166.69;5025186;27;98542;-65
2022/10/09 03:01:20;;;;;;;9.73;1.60;;;;;;;13.30;60.17;102175.38;5026601;28;98939;-65
2022/10/09 03:03:46;;;;;;;9.27;1.30;;;;;;;13.28;60.27;102176.31;5023031;27;98735;-65
2022/10/09 03:06:16;;;;;;;8.02;1.45;;;;;;;13.26;60.66;102172.84;5021451;27;97063;-65
2022/10/09 03:08:44;;;;;;;8.77;1.58;;;;;;;13.22;60.44;102173.81;5028159;27;97719;-65
2022/10/09 03:11:12;;;;;;;10.68;1.75;;;;;;;13.30;60.33;102179.81;5027636;27;99451;-64
2022/10/09 03:13:39;;;;;;;7.93;1.52;;;;;;;13.02;61.10;102184.88;5018895;28;99487;-65
2022/10/09 03:16:07;;;;;;;8.43;1.58;;;;;;;13.02;60.88;102176.91;5027262;27;96743;-65
2022/10/09 03:18:34;;;;;;;10.85;1.40;;;;;;;13.02;61.09;102184.88;5018211;27;97398;-64
2022/10/09 03:21:00;;;;;;;9.90;1.60;;;;;;;13.20;60.66;102181.81;5026033;28;101101;-66
2022/10/09 03:23:29;;;;;;;9.25;1.70;;;;;;;13.00;61.02;102178.72;5025468;27;98832;-65
2022/10/09 03:25:56;;;;;;;7.80;1.90;;;;;;;13.08;60.85;102184.72;5024764;27;96759;-65
2022/10/09 03:28:23;;;;;;;13.52;1.60;;;;;;;13.02;61.21;102182.22;5018242;27;96808;-65
2022/10/09 03:30:49;;;;;;;7.63;1.60;;;;;;;13.09;60.83;102181.16;5024921;27;99428;-65
2022/10/09 03:33:17;;;;;;;7.07;1.48;;;;;;;13.13;60.55;102183.72;5027629;27;96632;-65
2022/10/09 03:35:43;;;;;;;9.52;1.77;;;;;;;13.06;61.07;102181.25;5025866;27;96964;-66
2022/10/09 03:38:09;;;;;;;6.50;1.80;;;;;;;13.10;60.70;102183.78;5026994;27;97060;-66
2022/10/09 03:40:38;;;;;;;4.93;1.42;;;;;;;13.03;60.68;102181.31;5025564;27;99164;-66
2022/10/09 03:43:04;;;;;;;8.68;1.83;;;;;;;13.26;60.37;102194.09;5027162;27;98864;-65
2022/10/09 03:45:31;;;;;;;14.55;2.10;;;;;;;13.13;60.61;102190.81;5028976;27;96816;-65
2022/10/09 03:47:57;;;;;;;10.18;1.70;;;;;;;13.11;60.65;102197.94;5030669;27;96776;-65
2022/10/09 03:50:24;;;;;;;9.60;1.67;;;;;;;13.04;60.98;102197.19;5028780;28;99061;-65
2022/10/09 03:52:50;;;;;;;9.43;1.55;;;;;;;13.07;60.85;102198.91;5032034;27;98839;-65
2022/10/09 03:55:17;;;;;;;11.00;2.63;;;;;;;12.99;61.13;102203.53;5031864;28;97191;-65
2022/10/09 03:57:44;;;;;;;12.88;1.80;;;;;;;12.93;61.28;102203.66;5032291;27;97365;-65
2022/10/09 04:00:12;;;;;;;8.18;2.53;;;;;;;13.00;61.03;102199.94;5031796;28;99338;-65
2022/10/09 04:02:38;;;;;;;8.25;1.42;;;;;;;12.90;61.34;102196.63;5031786;27;98808;-65
2022/10/09 04:05:06;;;;;;;14.35;2.72;;;;;;;12.98;60.94;102204.44;5026041;27;96951;-65
2022/10/09 04:07:33;;;;;;;11.02;1.52;;;;;;;12.96;60.86;102214.19;5028445;28;96828;-65
2022/10/09 04:09:59;;;;;;;7.95;1.50;;;;;;;12.94;61.10;102214.22;5027793;28;98979;-66
2022/10/09 04:12:26;;;;;;;11.40;1.83;;;;;;;12.92;61.24;102208.09;5028258;27;99170;-65
2022/10/09 04:14:53;;;;;;;9.95;1.70;;;;;;;12.82;61.42;102210.97;5023798;27;98568;-65
2022/10/09 04:17:20;;;;;;;6.75;1.17;;;;;;;13.13;60.67;102206.75;5029985;27;97468;-65
2022/10/09 04:19:46;;;;;;;7.35;1.95;;;;;;;13.09;60.33;102219.19;5030758;28;98600;-66
2022/10/09 04:22:13;;;;;;;7.75;1.20;;;;;;;12.87;60.82;102219.69;5029721;28;99151;-66
2022/10/09 04:24:39;;;;;;;11.35;1.88;;;;;;;12.83;60.80;102216.25;5028866;27;96858;-66
2022/10/09 04:27:05;;;;;;;15.13;2.08;;;;;;;12.83;60.61;102216.25;5027228;28;96903;-66
2022/10/09 04:29:32;;;;;;;7.32;1.25;;;;;;;12.48;61.16;102224.03;5027668;27;99120;-66
2022/10/09 04:32:00;;;;;;;9.63;1.90;;;;;;;12.73;60.86;102225.31;5023230;27;98710;-65
2022/10/09 04:34:26;;;;;;;7.93;1.52;;;;;;;12.63;60.65;102223.75;5025087;28;96753;-67
2022/10/09 04:36:52;;;;;;;11.57;1.75;;;;;;;12.56;60.77;102227.41;5029960;28;96859;-66
2022/10/09 04:39:19;;;;;;;7.85;1.77;;;;;;;12.59;60.89;102230.91;5029755;28;98958;-66
2022/10/09 04:41:45;;;;;;;6.05;1.35;;;;;;;12.71;60.54;102221.81;5027835;28;98907;-67
2022/10/09 04:44:12;;;;;;;6.07;1.60;;;;;;;12.31;61.34;102227.91;5027701;27;98690;-65
2022/10/09 04:46:38;;;;;;;7.10;1.42;;;;;;;12.53;60.82;102219.53;5029612;27;98276;-65
2022/10/09 04:49:06;;;;;;;8.95;1.85;;;;;;;12.28;61.78;102227.09;5030689;27;99473;-65
2022/10/09 04:51:32;;;;;;;8.77;1.80;;;;;;;12.41;61.60;102233.88;5029604;28;99438;-65
2022/10/09 04:53:59;;;;;;;8.35;1.77;;;;;;;12.29;61.50;102224.41;5025612;28;96857;-65
2022/10/09 04:56:25;;;;;;;7.55;1.70;;;;;;;12.32;61.32;102224.38;5029510;28;97254;-65
2022/10/09 04:58:51;;;;;;;3.90;1.60;;;;;;;12.10;61.66;102223.00;5030294;28;97900;-65
2022/10/09 05:01:20;;;;;;;7.97;1.73;;;;;;;12.18;61.52;102230.81;5029152;28;98250;-65
2022/10/09 05:03:47;;;;;;;8.23;1.60;;;;;;;12.21;61.53;102236.91;5028020;27;97311;-65
2022/10/09 05:06:16;;;;;;;9.98;1.92;;;;;;;12.34;61.20;102238.44;5029262;28;97487;-65
2022/10/09 05:08:42;;;;;;;8.05;1.70;;;;;;;12.43;61.50;102232.09;5027221;28;99197;-66
2022/10/09 05:11:11;;;;;;;14.70;2.15;;;;;;;12.40;61.43;102237.47;5025231;27;99336;-65
2022/10/09 05:13:42;;;;;;;12.80;2.65;;;;;;;12.43;61.53;102244.47;5024413;28;97121;-66
2022/10/09 05:16:11;;;;;;;7.55;1.95;;;;;;;12.55;61.21;102236.28;5023810;27;96753;-66
2022/10/09 05:18:41;;;;;;;6.05;2.03;;;;;;;12.53;61.19;102232.81;5025667;27;99249;-65
2022/10/09 05:21:08;;;;;;;11.40;2.17;;;;;;;12.55;61.05;102238.94;5026815;28;99348;-65
2022/10/09 05:23:36;;;;;;;11.55;2.08;;;;;;;12.54;61.01;102243.34;5026221;27;96814;-66
2022/10/09 05:26:04;;;;;;;15.98;2.30;;;;;;;12.53;60.88;102248.72;5026624;28;96872;-66
2022/10/09 05:28:31;;;;;;;15.00;2.10;;;;;;;12.33;61.23;102249.97;5027298;28;99188;-66
2022/10/09 05:30:59;;;;;;;12.27;2.30;;;;;;;12.37;60.98;102256.94;5026124;27;99070;-65
2022/10/09 05:33:25;;;;;;;8.82;2.15;;;;;;;12.30;61.33;102263.28;5026590;27;97461;-65
2022/10/09 05:35:53;;;;;;;12.40;2.72;;;;;;;12.46;60.63;102266.53;5026558;27;96931;-65
2022/10/09 05:38:20;;;;;;;5.40;1.85;;;;;;;12.56;60.70;102269.84;5025585;28;99818;-66
2022/10/09 05:40:52;;;;;;;10.13;2.58;;;;;;;12.58;60.68;102260.09;5027869;28;98786;-66
2022/10/09 05:43:19;;;;;;;9.57;1.95;;;;;;;12.46;61.09;102263.00;5029229;27;97742;-65
2022/10/09 05:45:46;;;;;;;8.23;1.70;;;;;;;12.37;61.26;102256.94;5025716;28;96898;-66
2022/10/09 05:48:12;;;;;;;8.73;2.25;;;;;;;12.35;61.66;102266.69;5025802;28;99069;-65
2022/10/09 05:50:38;;;;;;;6.15;1.88;;;;;;;12.42;61.51;102262.16;5021136;27;99710;-66
2022/10/09 05:53:05;;;;;;;7.05;1.85;;;;;;;12.42;61.72;102274.53;5025827;27;96857;-65
2022/10/09 05:55:31;;;;;;;12.75;1.95;;;;;;;12.71;60.70;102280.16;5026367;27;97293;-66
2022/10/09 05:57:59;;;;;;;9.27;2.05;;;;;;;12.64;60.88;102294.44;5029579;27;99172;-65
2022/10/09 06:00:25;;;;;;;9.68;2.00;;;;;;;12.72;60.91;102293.41;5023208;27;98802;-65
2022/10/09 06:02:52;;;;;;;7.30;2.10;;;;;;;12.61;61.14;102291.84;5028806;27;96960;-63
2022/10/09 06:05:18;;;;;;;7.55;2.10;;;;;;;12.61;61.22;102297.13;5025261;27;96892;-65
2022/10/09 06:07:45;;;;;;;10.23;2.15;;;;;;;12.61;61.27;102299.78;5027586;27;98978;-65
2022/10/09 06:10:12;;;;;;;10.68;2.17;;;;;;;12.76;60.92;102295.06;5027731;27;99009;-65
2022/10/09 06:12:38;;;;;;;9.02;2.53;;;;;;;12.77;60.88;102301.25;5027892;27;97225;-65
2022/10/09 06:15:07;;;;;;;8.73;2.15;;;;;;;12.90;60.63;102302.75;5024044;27;96928;-66
2022/10/09 06:17:36;;;;;;;8.25;2.22;;;;;;;12.83;60.53;102298.47;5028965;27;98892;-65
2022/10/09 06:20:03;;;;;;;8.45;1.83;;;;;;;12.99;60.58;102302.56;5029106;27;98047;-65
2022/10/09 06:22:29;;;;;;;6.82;2.25;;;;;;;13.02;60.30;102313.09;5028638;27;98627;-66
2022/10/09 06:24:55;;;;;;;13.02;2.22;;;;;;;13.20;60.02;102313.66;5029313;27;97998;-65
2022/10/09 06:27:22;;;;;;;10.23;2.17;;;;;;;13.26;59.55;102314.38;5029201;27;99124;-65
2022/10/09 06:29:48;;;;;;;8.43;1.92;;;;;;;13.29;59.69;102321.44;5026077;27;100944;-65
2022/10/09 06:32:16;;;;;;;7.45;2.10;;;;;;;13.31;59.80;102319.63;5027066;27;96877;-65
2022/10/09 06:34:42;;;;;;;9.27;2.05;;;;;;;13.40;59.59;102319.41;5028159;27;96898;-65
2022/10/09 06:37:09;;;;;;;12.00;2.25;;;;;;;13.66;59.10;102327.66;5026772;27;99297;-65
2022/10/09 06:39:35;;;;;;;12.70;2.22;;;;;;;13.37;59.44;102322.13;5027871;27;98507;-66
2022/10/09 06:42:03;;;;;;;8.00;1.73;;;;;;;13.64;58.82;102328.59;5025216;27;97696;-65
2022/10/09 06:44:29;;;;;;;14.15;2.60;;;;;;;13.65;58.86;102328.59;5026359;27;96817;-66
2022/10/09 06:46:56;;;;;;;7.32;1.83;;;;;;;13.64;58.68;102334.81;5022813;27;98229;-65
2022/10/09 06:49:24;;;;;;;9.40;2.10;;;;;;;13.86;58.51;102333.38;5026728;27;97724;-66
2022/10/09 06:51:50;;;;;;;9.00;2.08;;;;;;;13.98;57.71;102339.31;5024203;27;97430;-66
2022/10/09 06:54:17;;;;;;;11.32;2.53;;;;;;;14.16;57.57;102338.84;5024383;27;98114;-66
2022/10/09 06:56:43;;;;;;;14.38;2.88;;;;;;;13.88;58.24;102336.88;5026326;27;99220;-65
2022/10/09 06:59:11;;;;;;;10.15;3.05;;;;;;;14.24;57.67;102344.84;5024263;27;100482;-66
2022/10/09 07:01:37;;;;;;;12.27;2.58;;;;;;;14.18;57.79;102348.53;5026470;27;98851;-66
2022/10/09 07:04:06;;;;;;;10.50;2.13;;;;;;;14.22;57.56;102349.34;5026078;27;97599;-65
2022/10/09 07:06:38;;;;;;;10.45;2.45;;;;;;;14.46;57.14;102348.72;5024086;27;100410;-65
2022/10/09 07:09:08;;;;;;;6.55;2.05;;;;;;;14.29;57.06;102353.59;5026378;27;98821;-65
2022/10/09 07:11:37;;;;;;;10.70;2.38;;;;;;;14.85;55.98;102351.22;5025333;27;98020;-65
2022/10/09 07:14:06;;;;;;;9.38;2.13;;;;;;;14.75;56.33;102350.63;5025098;28;98253;-66
2022/10/09 07:16:34;;;;;;;5.50;2.22;;;;;;;14.74;56.25;102356.84;5024650;27;99144;-65
2022/10/09 07:19:02;;;;;;;9.32;2.22;;;;;;;14.90;55.48;102357.31;5024100;28;99601;-66
2022/10/09 07:21:29;;;;;;;8.80;2.20;;;;;;;14.85;55.73;102356.53;5022395;28;96819;-67
2022/10/09 07:24:00;;;;;;;13.00;2.38;;;;;;;14.97;55.29;102358.84;5030929;28;96862;-66
2022/10/09 07:26:28;;;;;;;8.82;2.03;;;;;;;14.99;55.61;102357.91;5024429;27;97858;-66
2022/10/09 07:28:54;;;;;;;10.70;2.63;;;;;;;15.20;54.65;102363.53;5028927;27;99330;-66
2022/10/09 07:31:21;;;;;;;13.70;3.20;;;;;;;15.15;54.74;102356.56;5026644;27;98069;-65
2022/10/09 07:33:48;;;;;;;11.50;2.35;;;;;;;15.07;55.00;102365.69;5024400;27;97391;-65
2022/10/09 07:36:15;;;;;;;9.00;2.28;;;;;;;15.32;54.77;102360.50;5025797;28;99014;-64
2022/10/09 07:38:42;;;;;;;12.88;2.30;;;;;;;15.47;54.15;102366.25;5029109;28;97735;-66
2022/10/09 07:41:12;;;;;;;12.45;2.53;;;;;;;15.36;54.24;102364.84;5024676;28;97177;-66
2022/10/09 07:43:41;;;;;;;6.35;2.03;;;;;;;15.58;54.05;102373.94;5028345;28;97145;-66
2022/10/09 07:46:11;;;;;;;8.25;2.20;;;;;;;15.24;54.62;102371.38;5028129;28;101502;-67
2022/10/09 07:48:38;;;;;;;21.30;3.35;;;;;;;15.49;54.05;102371.56;5025816;27;99284;-68
2022/10/09 07:51:09;;;;;;;7.55;2.60;;;;;;;15.75;53.70;102371.63;5028279;27;96857;-66
2022/10/09 07:53:36;;;;;;;10.98;2.60;;;;;;;15.65;54.05;102370.19;5024969;28;96842;-66
2022/10/09 07:56:03;;;;;;;9.00;2.33;;;;;;;15.41;54.52;102368.25;5024126;27;98908;-66
2022/10/09 07:58:31;;;;;;;17.13;3.85;;;;;;;16.12;53.17;102375.78;5027732;28;99392;-66
2022/10/09 08:01:03;;;;;;;16.75;2.83;;;;;;;16.14;52.60;102376.63;5025915;27;97670;-67
2022/10/09 08:03:30;;;;;;;14.43;2.58;;;;;;;16.16;52.41;102380.97;5028651;27;96840;-67
2022/10/09 08:05:57;;;;;;;12.90;2.95;;;;;;;16.26;52.53;102377.09;5024284;27;101055;-65
2022/10/09 08:08:23;;;;;;;11.77;2.88;;;;;;;16.12;53.10;102382.00;5027420;28;99112;-67
2022/10/09 08:10:50;;;;;;;10.60;2.60;;;;;;;16.24;52.18;102378.06;5028345;27;96835;-66
2022/10/09 08:13:16;;;;;;;11.10;2.55;;;;;;;16.12;52.77;102381.13;5028284;27;96814;-66
2022/10/09 08:15:45;;;;;;;12.80;3.08;;;;;;;16.27;52.39;102384.16;5023009;27;98938;-67
2022/10/09 08:18:12;;;;;;;11.65;2.72;;;;;;;16.59;51.79;102382.19;5026067;27;97827;-66
2022/10/09 08:20:38;;;;;;;12.52;2.63;;;;;;;16.63;51.91;102386.53;5028059;27;97953;-66
2022/10/09 08:23:05;;;;;;;8.15;2.33;;;;;;;16.54;51.93;102381.50;5025457;27;96828;-66
2022/10/09 08:25:34;;;;;;;11.98;3.05;;;;;;;16.35;52.18;102387.44;5027170;27;99047;-66
2022/10/09 08:28:00;;;;;;;6.97;1.95;;;;;;;16.58;51.70;102397.34;5023186;27;99245;-67
2022/10/09 08:30:27;;;;;;;10.50;2.38;;;;;;;16.54;51.70;102393.00;5020448;27;96930;-65
2022/10/09 08:32:54;;;;;;;28.52;3.17;;;;;;;16.95;50.80;102394.28;5025338;27;98635;-67
2022/10/09 08:35:25;;;;;;;10.93;2.65;;;;;;;17.37;49.82;102397.16;5024006;28;99414;-67
2022/10/09 08:37:54;;;;;;;13.45;2.30;;;;;;;17.61;49.36;102395.38;5025600;27;98759;-65
2022/10/09 08:40:29;;;;;;;15.05;3.20;;;;;;;18.25;47.77;102403.50;5022374;27;97305;-66
2022/10/09 08:43:03;;;;;;;15.27;2.67;;;;;;;18.18;47.40;102402.03;5027191;27;96783;-67
2022/10/09 08:45:31;;;;;;;13.52;2.90;;;;;;;17.82;48.05;102402.56;5025295;28;98995;-66
2022/10/09 08:48:02;;;;;;;11.55;2.10;;;;;;;17.99;48.13;102401.00;5025780;28;98896;-66
2022/10/09 08:50:33;;;;;;;14.85;2.58;;;;;;;18.13;48.01;102398.66;5026695;28;97329;-66
2022/10/09 08:53:05;;;;;;;10.52;3.90;;;;;;;17.91;48.05;102404.88;5022833;27;98175;-66
2022/10/09 08:55:39;;;;;;;15.57;2.83;;;;;;;18.05;47.74;102403.47;5023551;27;97750;-66
2022/10/09 08:58:15;;;;;;;12.07;2.45;;;;;;;17.91;48.35;102394.19;5027312;28;97510;-66
2022/10/09 09:00:45;;;;;;;9.90;2.20;;;;;;;17.84;48.68;102392.69;5023161;28;96937;-66
2022/10/09 09:03:45;;;;;;;14.48;2.05;;;;;;;17.99;48.23;102388.50;5022298;28;97053;-67
2022/10/09 09:06:16;;;;;;;14.43;2.13;;;;;;;18.03;48.28;102397.28;5026107;28;99648;-66
2022/10/09 09:08:52;;;;;;;10.93;2.08;;;;;;;18.28;47.75;102398.91;5025014;28;99206;-66
2022/10/09 09:11:27;;;;;;;11.13;2.33;;;;;;;18.15;48.35;102399.47;5025252;27;97293;-66
2022/10/09 09:14:07;;;;;;;9.10;2.28;;;;;;;18.10;48.44;102401.47;5022432;28;97263;-66
2022/10/09 09:16:42;;;;;;;11.75;2.03;;;;;;;18.29;47.67;102395.28;5025734;28;98978;-66
2022/10/09 09:19:32;;;;;;;15.90;2.65;;;;;;;18.43;47.50;102391.16;5026545;28;101424;-66
2022/10/09 09:21:59;;;;;;;11.90;1.83;;;;;;;18.54;47.41;102403.16;5026227;28;96940;-66
2022/10/09 09:24:35;;;;;;;16.45;2.58;;;;;;;18.85;46.64;102386.66;5024284;28;97783;-66
2022/10/09 09:27:10;;;;;;;8.77;2.30;;;;;;;19.04;46.62;102381.34;5023991;27;98363;-68
2022/10/09 09:29:43;;;;;;;11.85;2.25;;;;;;;18.95;46.13;102376.41;5022234;27;99122;-67
2022/10/09 09:32:17;;;;;;;15.23;2.28;;;;;;;18.80;46.66;102390.47;5019342;27;97323;-68
2022/10/09 09:34:45;;;;;;;11.52;2.10;;;;;;;18.91;45.71;102388.19;5023294;27;97065;-66
2022/10/09 09:37:12;;;;;;;10.40;2.08;;;;;;;19.02;45.83;102385.91;5024028;28;99243;-66
2022/10/09 09:39:39;;;;;;;12.38;1.90;;;;;;;19.07;45.42;102381.22;5013542;27;99043;-67
2022/10/09 09:42:14;;;;;;;16.75;2.47;;;;;;;19.38;44.72;102384.22;5023241;28;97698;-66
2022/10/09 09:44:46;;;;;;;17.77;4.05;;;;;;;19.29;44.72;102375.75;5024277;27;97883;-67
2022/10/09 09:47:16;;;;;;;11.77;2.97;;;;;;;19.08;44.84;102380.28;5020883;28;99870;-67
2022/10/09 09:49:55;;;;;;;9.70;2.17;;;;;;;19.46;44.82;102384.78;5025216;27;99038;-66
2022/10/09 09:52:21;;;;;;;8.52;1.83;;;;;;;19.53;44.52;102377.31;5025345;27;97459;-67
2022/10/09 09:54:49;;;;;;;20.27;4.03;;;;;;;19.20;45.04;102378.84;5024754;27;97322;-66
2022/10/09 09:57:27;;;;;;;10.00;2.28;;;;;;;19.35;44.15;102376.34;5021745;28;99227;-67
2022/10/09 09:59:53;;;;;;;9.10;1.67;;;;;;;19.38;44.41;102378.00;5024831;28;99276;-67
2022/10/09 10:02:22;;;;;;;12.68;2.67;;;;;;;19.66;43.99;102378.47;5022872;28;97270;-68
2022/10/09 10:04:51;;;;;;;9.50;2.92;;;;;;;19.50;43.52;102375.63;5021223;27;97266;-67
2022/10/09 10:07:29;;;;;;;12.63;2.08;;;;;;;19.77;43.35;102376.13;5025493;27;99308;-66
2022/10/09 10:10:04;;;;;;;13.05;2.50;;;;;;;19.56;43.68;102370.97;5025727;28;100133;-66
2022/10/09 10:12:31;;;;;;;15.15;2.47;;;;;;;19.84;42.95;102368.66;5020305;28;97303;-66
2022/10/09 10:14:57;;;;;;;12.23;2.30;;;;;;;19.82;43.44;102362.53;5020315;28;97191;-66
2022/10/09 10:17:28;;;;;;;7.25;2.28;;;;;;;19.56;43.48;102366.44;5023083;28;98951;-66
2022/10/09 10:19:54;;;;;;;9.18;2.10;;;;;;;19.75;43.07;102366.44;5022592;27;98941;-68
2022/10/09 10:22:24;;;;;;;14.50;2.25;;;;;;;20.23;42.46;102358.66;5025613;27;97151;-66
2022/10/09 10:24:55;;;;;;;10.75;2.15;;;;;;;20.38;42.23;102365.09;5018141;27;97707;-66
2022/10/09 10:27:29;;;;;;;8.45;1.85;;;;;;;20.49;41.81;102357.34;5021869;27;97895;-67
2022/10/09 10:29:59;;;;;;;10.82;1.65;;;;;;;20.26;42.11;102350.44;5020826;27;101942;-67
2022/10/09 10:32:32;;;;;;;8.55;1.80;;;;;;;19.76;42.09;102358.31;5014080;27;97178;-67
2022/10/09 10:35:03;;;;;;;8.80;1.58;;;;;;;20.07;41.09;102354.13;5020578;27;97798;-67
2022/10/09 10:37:35;;;;;;;15.13;3.60;;;;;;;20.22;41.07;102347.97;5023336;27;99031;-66
2022/10/09 10:40:12;;;;;;;6.70;1.85;;;;;;;20.52;39.95;102353.66;5011511;27;98528;-67
2022/10/09 10:42:47;;;;;;;8.98;2.15;;;;;;;20.75;40.27;102349.75;5020318;27;97417;-66
2022/10/09 10:45:18;;;;;;;7.60;1.65;;;;;;;20.72;40.27;102344.56;5024041;27;98891;-67
2022/10/09 10:47:49;;;;;;;8.13;1.48;;;;;;;20.38;39.54;102340.06;5024595;27;99287;-66
2022/10/09 10:50:16;;;;;;;4.90;1.40;;;;;;;20.06;39.92;102345.22;5019707;27;98764;-67
2022/10/09 10:53:00;;;;;;;7.93;1.55;;;;;;;20.13;39.92;102335.91;5019094;27;98463;-67
2022/10/09 10:55:39;;;;;;;6.55;1.38;;;;;;;20.49;39.50;102325.13;5023996;27;97125;-67
2022/10/09 10:58:22;;;;;;;7.53;1.30;;;;;;;20.60;37.73;102322.78;5023842;27;99467;-67
2022/10/09 11:00:58;;;;;;;8.13;1.35;;;;;;;20.62;37.82;102328.03;5016690;27;97677;-68
2022/10/09 11:03:37;;;;;;;6.53;1.15;;;;;;;20.51;38.01;102325.06;5025160;28;97077;-67
2022/10/09 11:06:11;;;;;;;9.55;1.35;;;;;;;20.57;37.68;102316.69;5018902;27;99491;-66
2022/10/09 11:09:00;;;;;;;7.88;1.23;;;;;;;20.24;38.46;102321.94;5022630;27;99310;-66
2022/10/09 11:11:33;;;;;;;14.95;2.17;;;;;;;20.47;37.81;102321.69;5020664;27;99169;-67
2022/10/09 11:14:12;;;;;;;9.75;1.15;;;;;;;20.45;37.75;102317.31;5022568;28;97861;-67
2022/10/09 11:16:50;;;;;;;8.57;1.35;;;;;;;20.38;38.52;102322.13;5021456;28;96874;-67
2022/10/09 11:19:42;;;;;;;6.60;1.40;;;;;;;20.59;37.98;102322.84;5017791;28;99158;-67
2022/10/09 11:22:22;;;;;;;8.70;1.40;;;;;;;20.13;37.57;102313.56;5024598;28;98817;-66
2022/10/09 11:25:08;;;;;;;8.13;1.10;;;;;;;20.42;37.88;102312.09;5018138;28;98491;-67
2022/10/09 11:27:42;;;;;;;7.60;1.27;;;;;;;20.43;37.51;102316.53;5023765;27;97250;-66
2022/10/09 11:30:10;;;;;;;13.80;2.53;;;;;;;20.49;37.21;102302.78;5019980;27;98406;-66
2022/10/09 11:32:46;;;;;;;12.90;1.65;;;;;;;20.79;37.39;102302.97;5024831;27;98872;-68